sensor_id;sensor_type;location;lat;lon;timestamp;pressure;altitude;pressure_sealevel;temperature;humidity
50356;BME280;36264;51.296;-0.602;2022-12-07T00:01:29;59871.88;;;-145.31;100.00
50356;BME280;36264;51.296;-0.602;2022-12-07T00:03:57;59871.88;;;-145.31;100.00
50356;BME280;36264;51.296;-0.602;2022-12-07T00:06:29;59871.88;;;-145.31;100.00
50356;BME280;36264;51.296;-0.602;2022-12-07T00:08:54;59871.88;;;-145.31;100.00
50356;BME280;36264;51.296;-0.602;2022-12-07T00:11:21;59871.88;;;-145.31;100.00
50356;BME280;36264;51.296;-0.602;2022-12-07T00:13:47;59871.88;;;-145.31;100.00
50356;BME280;36264;51.296;-0.602;2022-12-07T00:16:17;59871.88;;;-145.31;100.00
50356;BME280;36264;51.296;-0.602;2022-12-07T00:18:44;59871.88;;;-145.31;100.00
50356;BME280;36264;51.296;-0.602;2022-12-07T00:21:15;59871.88;;;-145.31;100.00
50356;BME280;36264;51.296;-0.602;2022-12-07T00:23:42;59871.88;;;-145.31;100.00
50356;BME280;36264;51.296;-0.602;2022-12-07T00:26:12;59871.88;;;-145.31;100.00
50356;BME280;36264;51.296;-0.602;2022-12-07T00:28:38;59871.88;;;-145.31;100.00
50356;BME280;36264;51.296;-0.602;2022-12-07T00:31:09;59871.88;;;-145.31;100.00
50356;BME280;36264;51.296;-0.602;2022-12-07T00:33:35;59871.88;;;-145.31;100.00
50356;BME280;36264;51.296;-0.602;2022-12-07T00:36:02;59871.88;;;-145.31;100.00
50356;BME280;36264;51.296;-0.602;2022-12-07T00:38:30;59871.88;;;-145.31;100.00
50356;BME280;36264;51.296;-0.602;2022-12-07T00:41:01;59871.88;;;-145.31;100.00
50356;BME280;36264;51.296;-0.602;2022-12-07T00:43:27;59871.88;;;-145.31;100.00
50356;BME280;36264;51.296;-0.602;2022-12-07T00:45:54;59871.88;;;-145.31;100.00
50356;BME280;36264;51.296;-0.602;2022-12-07T00:48:20;59871.88;;;-145.31;100.00
50356;BME280;36264;51.296;-0.602;2022-12-07T00:50:45;59871.88;;;-145.31;100.00
50356;BME280;36264;51.296;-0.602;2022-12-07T00:53:11;59871.88;;;-145.31;100.00
50356;BME280;36264;51.296;-0.602;2022-12-07T00:55:36;59871.88;;;-145.31;100.00
50356;BME280;36264;51.296;-0.602;2022-12-07T00:58:02;59871.88;;;-145.31;100.00
50356;BME280;36264;51.296;-0.602;2022-12-07T01:00:28;59871.88;;;-145.31;100.00
50356;BME280;36264;51.296;-0.602;2022-12-07T01:02:53;59871.88;;;-145.31;100.00
50356;BME280;36264;51.296;-0.602;2022-12-07T01:05:19;59871.88;;;-145.31;100.00
50356;BME280;36264;51.296;-0.602;2022-12-07T01:07:44;59871.88;;;-145.31;100.00
50356;BME280;36264;51.296;-0.602;2022-12-07T01:10:12;59871.88;;;-145.31;100.00
50356;BME280;36264;51.296;-0.602;2022-12-07T01:12:37;59871.88;;;-145.31;100.00
50356;BME280;36264;51.296;-0.602;2022-12-07T01:15:03;59871.88;;;-145.31;100.00
50356;BME280;36264;51.296;-0.602;2022-12-07T01:17:28;59871.88;;;-145.31;100.00
50356;BME280;36264;51.296;-0.602;2022-12-07T01:19:54;59871.88;;;-145.31;100.00
50356;BME280;36264;51.296;-0.602;2022-12-07T01:22:19;59871.88;;;-145.31;100.00
50356;BME280;36264;51.296;-0.602;2022-12-07T01:24:44;59871.88;;;-145.31;100.00
50356;BME280;36264;51.296;-0.602;2022-12-07T01:27:12;59871.88;;;-145.31;100.00
50356;BME280;36264;51.296;-0.602;2022-12-07T01:29:38;59871.88;;;-145.31;100.00
50356;BME280;36264;51.296;-0.602;2022-12-07T01:32:03;59871.88;;;-145.31;100.00
50356;BME280;36264;51.296;-0.602;2022-12-07T01:34:29;59871.88;;;-145.31;100.00
50356;BME280;36264;51.296;-0.602;2022-12-07T01:36:54;59871.88;;;-145.31;100.00
50356;BME280;36264;51.296;-0.602;2022-12-07T01:39:19;59871.88;;;-145.31;100.00
50356;BME280;36264;51.296;-0.602;2022-12-07T01:41:45;59871.88;;;-145.31;100.00
50356;BME280;36264;51.296;-0.602;2022-12-07T01:44:16;59871.88;;;-145.31;100.00
50356;BME280;36264;51.296;-0.602;2022-12-07T01:46:44;59871.88;;;-145.31;100.00
50356;BME280;36264;51.296;-0.602;2022-12-07T01:49:16;59871.88;;;-145.31;100.00
50356;BME280;36264;51.296;-0.602;2022-12-07T01:51:43;59871.88;;;-145.31;100.00
50356;BME280;36264;51.296;-0.602;2022-12-07T01:54:11;59871.88;;;-145.31;100.00
50356;BME280;36264;51.296;-0.602;2022-12-07T01:56:39;59871.88;;;-145.31;100.00
50356;BME280;36264;51.296;-0.602;2022-12-07T01:59:05;59871.88;;;-145.31;100.00
50356;BME280;36264;51.296;-0.602;2022-12-07T02:01:31;59871.88;;;-145.31;100.00
50356;BME280;36264;51.296;-0.602;2022-12-07T02:03:57;59871.88;;;-145.31;100.00
50356;BME280;36264;51.296;-0.602;2022-12-07T02:06:24;59871.88;;;-145.31;100.00
50356;BME280;36264;51.296;-0.602;2022-12-07T02:08:51;59871.88;;;-145.31;100.00
50356;BME280;36264;51.296;-0.602;2022-12-07T02:11:17;59871.88;;;-145.31;100.00
50356;BME280;36264;51.296;-0.602;2022-12-07T02:13:43;59871.88;;;-145.31;100.00
50356;BME280;36264;51.296;-0.602;2022-12-07T02:24:13;59871.88;;;-145.31;100.00
50356;BME280;36264;51.296;-0.602;2022-12-07T02:26:50;59871.88;;;-145.31;100.00
50356;BME280;36264;51.296;-0.602;2022-12-07T02:30:23;59871.88;;;-145.31;100.00
50356;BME280;36264;51.296;-0.602;2022-12-07T02:32:52;59871.88;;;-145.31;100.00
50356;BME280;36264;51.296;-0.602;2022-12-07T02:35:39;59871.88;;;-145.31;100.00
50356;BME280;36264;51.296;-0.602;2022-12-07T02:38:20;59871.88;;;-145.31;100.00
50356;BME280;36264;51.296;-0.602;2022-12-07T02:40:54;59871.88;;;-145.31;100.00
50356;BME280;36264;51.296;-0.602;2022-12-07T02:43:25;59871.88;;;-145.31;100.00
50356;BME280;36264;51.296;-0.602;2022-12-07T02:45:54;59871.88;;;-145.31;100.00
50356;BME280;36264;51.296;-0.602;2022-12-07T02:48:21;59871.88;;;-145.31;100.00
50356;BME280;36264;51.296;-0.602;2022-12-07T02:50:51;59871.88;;;-145.31;100.00
50356;BME280;36264;51.296;-0.602;2022-12-07T02:55:55;59871.88;;;-145.31;100.00
50356;BME280;36264;51.296;-0.602;2022-12-07T03:01:28;59871.88;;;-145.31;100.00
50356;BME280;36264;51.296;-0.602;2022-12-07T03:04:22;59871.88;;;-145.31;100.00
50356;BME280;36264;51.296;-0.602;2022-12-07T03:07:06;59871.88;;;-145.31;100.00
50356;BME280;36264;51.296;-0.602;2022-12-07T03:09:39;59871.88;;;-145.31;100.00
50356;BME280;36264;51.296;-0.602;2022-12-07T03:12:17;59871.88;;;-145.31;100.00
50356;BME280;36264;51.296;-0.602;2022-12-07T03:14:50;59871.88;;;-145.31;100.00
50356;BME280;36264;51.296;-0.602;2022-12-07T03:17:23;59871.88;;;-145.31;100.00
50356;BME280;36264;51.296;-0.602;2022-12-07T03:19:53;59871.88;;;-145.31;100.00
50356;BME280;36264;51.296;-0.602;2022-12-07T03:22:22;59871.88;;;-145.31;100.00
50356;BME280;36264;51.296;-0.602;2022-12-07T03:24:52;59871.88;;;-145.31;100.00
50356;BME280;36264;51.296;-0.602;2022-12-07T03:27:22;59871.88;;;-145.31;100.00
50356;BME280;36264;51.296;-0.602;2022-12-07T03:30:00;59871.88;;;-145.31;100.00
50356;BME280;36264;51.296;-0.602;2022-12-07T03:35:34;59871.88;;;-145.31;100.00
50356;BME280;36264;51.296;-0.602;2022-12-07T03:38:20;59871.88;;;-145.31;100.00
50356;BME280;36264;51.296;-0.602;2022-12-07T03:41:00;59871.88;;;-145.31;100.00
50356;BME280;36264;51.296;-0.602;2022-12-07T03:43:28;59871.88;;;-145.31;100.00
50356;BME280;36264;51.296;-0.602;2022-12-07T03:46:17;59871.88;;;-145.31;100.00
50356;BME280;36264;51.296;-0.602;2022-12-07T03:51:26;59871.88;;;-145.31;100.00
50356;BME280;36264;51.296;-0.602;2022-12-07T03:54:09;59871.88;;;-145.31;100.00
50356;BME280;36264;51.296;-0.602;2022-12-07T03:56:36;59871.88;;;-145.31;100.00
50356;BME280;36264;51.296;-0.602;2022-12-07T03:59:02;59871.88;;;-145.31;100.00
50356;BME280;36264;51.296;-0.602;2022-12-07T04:01:27;59871.88;;;-145.31;100.00
50356;BME280;36264;51.296;-0.602;2022-12-07T04:03:53;59871.88;;;-145.31;100.00
50356;BME280;36264;51.296;-0.602;2022-12-07T04:06:18;59871.88;;;-145.31;100.00
50356;BME280;36264;51.296;-0.602;2022-12-07T04:08:44;59871.88;;;-145.31;100.00
50356;BME280;36264;51.296;-0.602;2022-12-07T04:11:09;59871.88;;;-145.31;100.00
50356;BME280;36264;51.296;-0.602;2022-12-07T04:13:34;59871.88;;;-145.31;100.00
50356;BME280;36264;51.296;-0.602;2022-12-07T04:16:20;59871.88;;;-145.31;100.00
50356;BME280;36264;51.296;-0.602;2022-12-07T04:18:45;59871.88;;;-145.31;100.00
50356;BME280;36264;51.296;-0.602;2022-12-07T04:21:11;59871.88;;;-145.31;100.00
50356;BME280;36264;51.296;-0.602;2022-12-07T04:23:36;59871.88;;;-145.31;100.00
50356;BME280;36264;51.296;-0.602;2022-12-07T04:26:01;59871.88;;;-145.31;100.00
50356;BME280;36264;51.296;-0.602;2022-12-07T04:28:27;59871.88;;;-145.31;100.00
50356;BME280;36264;51.296;-0.602;2022-12-07T04:30:52;59871.88;;;-145.31;100.00
50356;BME280;36264;51.296;-0.602;2022-12-07T04:33:17;59871.88;;;-145.31;100.00
50356;BME280;36264;51.296;-0.602;2022-12-07T04:35:43;59871.88;;;-145.31;100.00
50356;BME280;36264;51.296;-0.602;2022-12-07T04:38:08;59871.88;;;-145.31;100.00
50356;BME280;36264;51.296;-0.602;2022-12-07T04:40:34;59871.88;;;-145.31;100.00
50356;BME280;36264;51.296;-0.602;2022-12-07T04:42:59;59871.88;;;-145.31;100.00
50356;BME280;36264;51.296;-0.602;2022-12-07T04:45:25;59871.88;;;-145.31;100.00
50356;BME280;36264;51.296;-0.602;2022-12-07T04:47:50;59871.88;;;-145.31;100.00
50356;BME280;36264;51.296;-0.602;2022-12-07T04:50:15;59871.88;;;-145.31;100.00
50356;BME280;36264;51.296;-0.602;2022-12-07T04:52:41;59871.88;;;-145.31;100.00
50356;BME280;36264;51.296;-0.602;2022-12-07T04:55:07;59871.88;;;-145.31;100.00
50356;BME280;36264;51.296;-0.602;2022-12-07T04:57:32;59871.88;;;-145.31;100.00
50356;BME280;36264;51.296;-0.602;2022-12-07T04:59:57;59871.88;;;-145.31;100.00
50356;BME280;36264;51.296;-0.602;2022-12-07T05:02:23;59871.88;;;-145.31;100.00
50356;BME280;36264;51.296;-0.602;2022-12-07T05:04:48;59871.88;;;-145.31;100.00
50356;BME280;36264;51.296;-0.602;2022-12-07T05:07:13;59871.88;;;-145.31;100.00
50356;BME280;36264;51.296;-0.602;2022-12-07T05:09:39;59871.88;;;-145.31;100.00
50356;BME280;36264;51.296;-0.602;2022-12-07T05:12:04;59871.88;;;-145.31;100.00
50356;BME280;36264;51.296;-0.602;2022-12-07T05:14:30;59871.88;;;-145.31;100.00
50356;BME280;36264;51.296;-0.602;2022-12-07T05:16:55;59871.88;;;-145.31;100.00
50356;BME280;36264;51.296;-0.602;2022-12-07T05:19:20;59871.88;;;-145.31;100.00
50356;BME280;36264;51.296;-0.602;2022-12-07T05:21:46;59871.88;;;-145.31;100.00
50356;BME280;36264;51.296;-0.602;2022-12-07T05:24:14;59871.88;;;-145.31;100.00
50356;BME280;36264;51.296;-0.602;2022-12-07T05:26:41;59871.88;;;-145.31;100.00
50356;BME280;36264;51.296;-0.602;2022-12-07T05:29:06;59871.88;;;-145.31;100.00
50356;BME280;36264;51.296;-0.602;2022-12-07T05:31:32;59871.88;;;-145.31;100.00
50356;BME280;36264;51.296;-0.602;2022-12-07T05:33:59;59871.88;;;-145.31;100.00
50356;BME280;36264;51.296;-0.602;2022-12-07T05:36:24;59871.88;;;-145.31;100.00
50356;BME280;36264;51.296;-0.602;2022-12-07T05:38:49;59871.88;;;-145.31;100.00
50356;BME280;36264;51.296;-0.602;2022-12-07T05:41:17;59871.88;;;-145.31;100.00
50356;BME280;36264;51.296;-0.602;2022-12-07T05:44:01;59871.88;;;-145.31;100.00
50356;BME280;36264;51.296;-0.602;2022-12-07T05:46:26;59871.88;;;-145.31;100.00
50356;BME280;36264;51.296;-0.602;2022-12-07T05:48:52;59871.88;;;-145.31;100.00
50356;BME280;36264;51.296;-0.602;2022-12-07T05:51:17;59871.88;;;-145.31;100.00
50356;BME280;36264;51.296;-0.602;2022-12-07T05:53:43;59871.88;;;-145.31;100.00
50356;BME280;36264;51.296;-0.602;2022-12-07T05:56:09;59871.88;;;-145.31;100.00
50356;BME280;36264;51.296;-0.602;2022-12-07T05:58:34;59871.88;;;-145.31;100.00
50356;BME280;36264;51.296;-0.602;2022-12-07T06:01:18;59871.88;;;-145.31;100.00
50356;BME280;36264;51.296;-0.602;2022-12-07T06:03:43;59871.88;;;-145.31;100.00
50356;BME280;36264;51.296;-0.602;2022-12-07T06:06:10;59871.88;;;-145.31;100.00
50356;BME280;36264;51.296;-0.602;2022-12-07T06:08:35;59871.88;;;-145.31;100.00
50356;BME280;36264;51.296;-0.602;2022-12-07T06:11:00;59871.88;;;-145.31;100.00
50356;BME280;36264;51.296;-0.602;2022-12-07T06:13:44;59871.88;;;-145.31;100.00
50356;BME280;36264;51.296;-0.602;2022-12-07T06:16:09;59871.88;;;-145.31;100.00
50356;BME280;36264;51.296;-0.602;2022-12-07T06:18:35;59871.88;;;-145.31;100.00
50356;BME280;36264;51.296;-0.602;2022-12-07T06:21:00;59871.88;;;-145.31;100.00
50356;BME280;36264;51.296;-0.602;2022-12-07T06:23:25;59871.88;;;-145.31;100.00
50356;BME280;36264;51.296;-0.602;2022-12-07T06:25:51;59871.88;;;-145.31;100.00
50356;BME280;36264;51.296;-0.602;2022-12-07T06:28:16;59871.88;;;-145.31;100.00
50356;BME280;36264;51.296;-0.602;2022-12-07T06:30:41;59871.88;;;-145.31;100.00
50356;BME280;36264;51.296;-0.602;2022-12-07T06:33:07;59871.88;;;-145.31;100.00
50356;BME280;36264;51.296;-0.602;2022-12-07T06:35:33;59871.88;;;-145.31;100.00
50356;BME280;36264;51.296;-0.602;2022-12-07T06:37:58;59871.88;;;-145.31;100.00
50356;BME280;36264;51.296;-0.602;2022-12-07T06:40:24;59871.88;;;-145.31;100.00
50356;BME280;36264;51.296;-0.602;2022-12-07T06:42:49;59871.88;;;-145.31;100.00
50356;BME280;36264;51.296;-0.602;2022-12-07T06:45:15;59871.88;;;-145.31;100.00
50356;BME280;36264;51.296;-0.602;2022-12-07T06:47:40;59871.88;;;-145.31;100.00
50356;BME280;36264;51.296;-0.602;2022-12-07T06:50:06;59871.88;;;-145.31;100.00
50356;BME280;36264;51.296;-0.602;2022-12-07T06:52:33;59871.88;;;-145.31;100.00
50356;BME280;36264;51.296;-0.602;2022-12-07T06:54:58;59871.88;;;-145.31;100.00
50356;BME280;36264;51.296;-0.602;2022-12-07T06:57:24;59871.88;;;-145.31;100.00
50356;BME280;36264;51.296;-0.602;2022-12-07T06:59:50;59871.88;;;-145.31;100.00
50356;BME280;36264;51.296;-0.602;2022-12-07T07:02:15;59871.88;;;-145.31;100.00
50356;BME280;36264;51.296;-0.602;2022-12-07T07:04:40;59871.88;;;-145.31;100.00
50356;BME280;36264;51.296;-0.602;2022-12-07T07:07:06;59871.88;;;-145.31;100.00
50356;BME280;36264;51.296;-0.602;2022-12-07T07:09:31;59871.88;;;-145.31;100.00
50356;BME280;36264;51.296;-0.602;2022-12-07T07:11:56;59871.88;;;-145.31;100.00
50356;BME280;36264;51.296;-0.602;2022-12-07T07:14:22;59871.88;;;-145.31;100.00
50356;BME280;36264;51.296;-0.602;2022-12-07T07:16:47;59871.88;;;-145.31;100.00
50356;BME280;36264;51.296;-0.602;2022-12-07T07:19:12;59871.88;;;-145.31;100.00
50356;BME280;36264;51.296;-0.602;2022-12-07T07:21:38;59871.88;;;-145.31;100.00
50356;BME280;36264;51.296;-0.602;2022-12-07T07:24:03;59871.88;;;-145.31;100.00
50356;BME280;36264;51.296;-0.602;2022-12-07T07:26:29;59871.88;;;-145.31;100.00
50356;BME280;36264;51.296;-0.602;2022-12-07T07:28:55;59871.88;;;-145.31;100.00
50356;BME280;36264;51.296;-0.602;2022-12-07T07:31:20;59871.88;;;-145.31;100.00
50356;BME280;36264;51.296;-0.602;2022-12-07T07:33:46;59871.88;;;-145.31;100.00
50356;BME280;36264;51.296;-0.602;2022-12-07T07:36:12;59871.88;;;-145.31;100.00
50356;BME280;36264;51.296;-0.602;2022-12-07T07:38:37;59871.88;;;-145.31;100.00
50356;BME280;36264;51.296;-0.602;2022-12-07T07:41:03;59871.88;;;-145.31;100.00
50356;BME280;36264;51.296;-0.602;2022-12-07T07:43:28;59871.88;;;-145.31;100.00
50356;BME280;36264;51.296;-0.602;2022-12-07T07:45:54;59871.88;;;-145.31;100.00
50356;BME280;36264;51.296;-0.602;2022-12-07T07:48:19;59871.88;;;-145.31;100.00
50356;BME280;36264;51.296;-0.602;2022-12-07T07:50:45;59871.88;;;-145.31;100.00
50356;BME280;36264;51.296;-0.602;2022-12-07T07:53:10;59871.88;;;-145.31;100.00
50356;BME280;36264;51.296;-0.602;2022-12-07T07:55:35;59871.88;;;-145.31;100.00
50356;BME280;36264;51.296;-0.602;2022-12-07T07:58:01;59871.88;;;-145.31;100.00
50356;BME280;36264;51.296;-0.602;2022-12-07T08:00:26;59871.88;;;-145.31;100.00
50356;BME280;36264;51.296;-0.602;2022-12-07T08:02:51;59871.88;;;-145.31;100.00
50356;BME280;36264;51.296;-0.602;2022-12-07T08:05:17;59871.88;;;-145.31;100.00
50356;BME280;36264;51.296;-0.602;2022-12-07T08:07:42;59871.88;;;-145.31;100.00
50356;BME280;36264;51.296;-0.602;2022-12-07T08:10:10;59871.88;;;-145.31;100.00
50356;BME280;36264;51.296;-0.602;2022-12-07T08:12:37;59871.88;;;-145.31;100.00
50356;BME280;36264;51.296;-0.602;2022-12-07T08:15:24;59871.88;;;-145.31;100.00
50356;BME280;36264;51.296;-0.602;2022-12-07T08:17:49;59871.88;;;-145.31;100.00
50356;BME280;36264;51.296;-0.602;2022-12-07T08:20:15;59871.88;;;-145.31;100.00
50356;BME280;36264;51.296;-0.602;2022-12-07T08:22:40;59871.88;;;-145.31;100.00
50356;BME280;36264;51.296;-0.602;2022-12-07T08:25:06;59871.88;;;-145.31;100.00
50356;BME280;36264;51.296;-0.602;2022-12-07T08:27:31;59871.88;;;-145.31;100.00
50356;BME280;36264;51.296;-0.602;2022-12-07T08:29:56;59871.88;;;-145.31;100.00
50356;BME280;36264;51.296;-0.602;2022-12-07T08:32:22;59871.88;;;-145.31;100.00
50356;BME280;36264;51.296;-0.602;2022-12-07T08:34:47;59871.88;;;-145.31;100.00
50356;BME280;36264;51.296;-0.602;2022-12-07T08:37:12;59871.88;;;-145.31;100.00
50356;BME280;36264;51.296;-0.602;2022-12-07T08:39:38;59871.88;;;-145.31;100.00
50356;BME280;36264;51.296;-0.602;2022-12-07T08:42:03;59871.88;;;-145.31;100.00
50356;BME280;36264;51.296;-0.602;2022-12-07T08:44:28;59871.88;;;-145.31;100.00
50356;BME280;36264;51.296;-0.602;2022-12-07T08:46:59;59871.88;;;-145.31;100.00
50356;BME280;36264;51.296;-0.602;2022-12-07T08:49:41;59871.88;;;-145.31;100.00
50356;BME280;36264;51.296;-0.602;2022-12-07T08:52:09;59871.88;;;-145.31;100.00
50356;BME280;36264;51.296;-0.602;2022-12-07T08:54:36;59871.88;;;-145.31;100.00
50356;BME280;36264;51.296;-0.602;2022-12-07T08:57:04;59871.88;;;-145.31;100.00
50356;BME280;36264;51.296;-0.602;2022-12-07T08:59:33;59871.88;;;-145.31;100.00
50356;BME280;36264;51.296;-0.602;2022-12-07T09:01:59;59871.88;;;-145.31;100.00
50356;BME280;36264;51.296;-0.602;2022-12-07T09:04:25;59871.88;;;-145.31;100.00
50356;BME280;36264;51.296;-0.602;2022-12-07T09:36:00;102094.19;;;2.05;100.00
50356;BME280;36264;51.296;-0.602;2022-12-07T09:38:26;102087.22;;;2.01;100.00
50356;BME280;36264;51.296;-0.602;2022-12-07T09:40:51;102085.47;;;1.98;100.00
50356;BME280;36264;51.296;-0.602;2022-12-07T09:43:19;102077.81;;;2.00;100.00
50356;BME280;36264;51.296;-0.602;2022-12-07T09:45:47;102080.50;;;2.05;100.00
50356;BME280;36264;51.296;-0.602;2022-12-07T09:48:18;102088.28;;;2.09;100.00
50356;BME280;36264;51.296;-0.602;2022-12-07T09:50:45;102095.19;;;2.12;100.00
50356;BME280;36264;51.296;-0.602;2022-12-07T09:53:27;102097.91;;;2.18;100.00
50356;BME280;36264;51.296;-0.602;2022-12-07T09:55:53;102093.72;;;2.22;100.00
50356;BME280;36264;51.296;-0.602;2022-12-07T09:58:25;102098.97;;;2.26;100.00
50356;BME280;36264;51.296;-0.602;2022-12-07T10:00:57;102091.28;;;2.26;100.00
50356;BME280;36264;51.296;-0.602;2022-12-07T10:03:23;102093.03;;;2.27;100.00
50356;BME280;36264;51.296;-0.602;2022-12-07T10:05:50;102099.13;;;2.32;100.00
50356;BME280;36264;51.296;-0.602;2022-12-07T10:08:16;102089.84;;;2.38;100.00
50356;BME280;36264;51.296;-0.602;2022-12-07T10:10:43;102091.63;;;2.40;100.00
50356;BME280;36264;51.296;-0.602;2022-12-07T10:13:11;102085.69;;;2.41;100.00
50356;BME280;36264;51.296;-0.602;2022-12-07T10:21:21;102079.47;;;2.33;100.00
50356;BME280;36264;51.296;-0.602;2022-12-07T10:31:38;102062.63;;;2.43;100.00
50356;BME280;36264;51.296;-0.602;2022-12-07T10:34:25;102058.41;;;2.45;100.00
50356;BME280;36264;51.296;-0.602;2022-12-07T10:36:52;102049.97;;;2.50;100.00
50356;BME280;36264;51.296;-0.602;2022-12-07T10:39:23;102047.53;;;2.57;100.00
50356;BME280;36264;51.296;-0.602;2022-12-07T10:42:01;102039.00;;;2.56;100.00
50356;BME280;36264;51.296;-0.602;2022-12-07T10:44:32;102032.19;;;2.58;100.00
50356;BME280;36264;51.296;-0.602;2022-12-07T10:55:21;102021.19;;;2.62;100.00
50356;BME280;36264;51.296;-0.602;2022-12-07T11:03:56;102005.94;;;2.68;100.00
50356;BME280;36264;51.296;-0.602;2022-12-07T11:06:41;102010.25;;;2.71;100.00
50356;BME280;36264;51.296;-0.602;2022-12-07T11:15:12;102004.47;;;2.80;100.00
50356;BME280;36264;51.296;-0.602;2022-12-07T11:18:18;102002.97;;;2.91;100.00
50356;BME280;36264;51.296;-0.602;2022-12-07T11:26:02;101994.91;;;3.15;100.00
50356;BME280;36264;51.296;-0.602;2022-12-07T11:28:50;101996.75;;;3.22;100.00
50356;BME280;36264;51.296;-0.602;2022-12-07T11:31:24;101989.97;;;3.26;100.00
50356;BME280;36264;51.296;-0.602;2022-12-07T11:34:07;101976.25;;;3.24;100.00
50356;BME280;36264;51.296;-0.602;2022-12-07T11:36:43;101970.16;;;3.19;100.00
50356;BME280;36264;51.296;-0.602;2022-12-07T11:41:38;101966.78;;;3.21;100.00
50356;BME280;36264;51.296;-0.602;2022-12-07T11:44:24;101967.72;;;3.26;100.00
50356;BME280;36264;51.296;-0.602;2022-12-07T11:46:58;101951.47;;;3.26;100.00
50356;BME280;36264;51.296;-0.602;2022-12-07T11:51:54;101948.38;;;3.45;100.00
50356;BME280;36264;51.296;-0.602;2022-12-07T11:54:30;101954.53;;;3.54;100.00
50356;BME280;36264;51.296;-0.602;2022-12-07T11:57:03;101947.78;;;3.59;100.00
50356;BME280;36264;51.296;-0.602;2022-12-07T11:59:44;101946.13;;;3.62;100.00
50356;BME280;36264;51.296;-0.602;2022-12-07T12:02:32;101956.38;;;3.62;100.00
50356;BME280;36264;51.296;-0.602;2022-12-07T12:05:18;101946.06;;;3.59;100.00
50356;BME280;36264;51.296;-0.602;2022-12-07T12:08:32;101945.22;;;3.60;100.00
50356;BME280;36264;51.296;-0.602;2022-12-07T12:16:37;101935.19;;;3.74;100.00
50356;BME280;36264;51.296;-0.602;2022-12-07T12:22:26;101919.06;;;3.85;100.00
50356;BME280;36264;51.296;-0.602;2022-12-07T12:24:54;101919.16;;;3.91;100.00
50356;BME280;36264;51.296;-0.602;2022-12-07T12:27:25;101902.94;;;3.95;100.00
50356;BME280;36264;51.296;-0.602;2022-12-07T12:29:56;101908.09;;;3.98;100.00
50356;BME280;36264;51.296;-0.602;2022-12-07T12:38:32;101897.97;;;4.07;100.00
50356;BME280;36264;51.296;-0.602;2022-12-07T12:40:59;101893.72;;;4.09;100.00
50356;BME280;36264;51.296;-0.602;2022-12-07T12:43:49;101897.16;;;4.10;100.00
50356;BME280;36264;51.296;-0.602;2022-12-07T12:49:13;101893.72;;;4.08;100.00
50356;BME280;36264;51.296;-0.602;2022-12-07T12:51:44;101883.44;;;4.09;100.00
50356;BME280;36264;51.296;-0.602;2022-12-07T12:59:41;101863.75;;;4.11;100.00
50356;BME280;36264;51.296;-0.602;2022-12-07T13:04:55;101853.56;;;4.17;100.00
50356;BME280;36264;51.296;-0.602;2022-12-07T13:13:04;101852.72;;;4.22;100.00
50356;BME280;36264;51.296;-0.602;2022-12-07T13:20:47;101844.13;;;4.18;100.00
50356;BME280;36264;51.296;-0.602;2022-12-07T13:23:16;101840.75;;;4.21;100.00
50356;BME280;36264;51.296;-0.602;2022-12-07T13:28:21;101836.50;;;4.24;100.00
50356;BME280;36264;51.296;-0.602;2022-12-07T13:33:28;101821.97;;;4.29;100.00
50356;BME280;36264;51.296;-0.602;2022-12-07T13:35:54;101822.00;;;4.31;100.00
50356;BME280;36264;51.296;-0.602;2022-12-07T13:38:33;101822.81;;;4.27;100.00
50356;BME280;36264;51.296;-0.602;2022-12-07T13:41:02;101812.44;;;4.21;100.00
50356;BME280;36264;51.296;-0.602;2022-12-07T13:43:27;101808.13;;;4.18;100.00
50356;BME280;36264;51.296;-0.602;2022-12-07T13:45:57;101808.13;;;4.20;100.00
50356;BME280;36264;51.296;-0.602;2022-12-07T13:48:36;101806.47;;;4.23;100.00
50356;BME280;36264;51.296;-0.602;2022-12-07T13:51:17;101800.53;;;4.27;100.00
50356;BME280;36264;51.296;-0.602;2022-12-07T13:53:47;101791.97;;;4.28;100.00
50356;BME280;36264;51.296;-0.602;2022-12-07T13:56:13;101782.50;;;4.26;100.00
50356;BME280;36264;51.296;-0.602;2022-12-07T13:58:39;101790.22;;;4.26;100.00
50356;BME280;36264;51.296;-0.602;2022-12-07T14:01:05;101786.84;;;4.28;100.00
50356;BME280;36264;51.296;-0.602;2022-12-07T14:03:33;101785.94;;;4.28;100.00
50356;BME280;36264;51.296;-0.602;2022-12-07T14:06:23;101775.69;;;4.29;100.00
50356;BME280;36264;51.296;-0.602;2022-12-07T14:09:05;101772.22;;;4.27;100.00
50356;BME280;36264;51.296;-0.602;2022-12-07T14:11:31;101775.63;;;4.26;100.00
50356;BME280;36264;51.296;-0.602;2022-12-07T14:13:59;101773.94;;;4.27;100.00
50356;BME280;36264;51.296;-0.602;2022-12-07T14:16:35;101772.28;;;4.32;100.00
50356;BME280;36264;51.296;-0.602;2022-12-07T14:19:38;101779.13;;;4.30;100.00
50356;BME280;36264;51.296;-0.602;2022-12-07T14:22:17;101770.47;;;4.25;100.00
50356;BME280;36264;51.296;-0.602;2022-12-07T14:24:43;101768.78;;;4.25;100.00
50356;BME280;36264;51.296;-0.602;2022-12-07T14:27:23;101768.78;;;4.25;100.00
50356;BME280;36264;51.296;-0.602;2022-12-07T14:29:51;101760.22;;;4.28;100.00
50356;BME280;36264;51.296;-0.602;2022-12-07T14:32:24;101757.72;;;4.32;100.00
50356;BME280;36264;51.296;-0.602;2022-12-07T14:35:02;101751.72;;;4.32;100.00
50356;BME280;36264;51.296;-0.602;2022-12-07T14:37:29;101749.97;;;4.31;100.00
50356;BME280;36264;51.296;-0.602;2022-12-07T14:39:55;101743.97;;;4.29;100.00
50356;BME280;36264;51.296;-0.602;2022-12-07T14:42:22;101740.56;;;4.30;100.00
50356;BME280;36264;51.296;-0.602;2022-12-07T14:44:49;101742.22;;;4.28;100.00
50356;BME280;36264;51.296;-0.602;2022-12-07T14:47:14;101740.50;;;4.25;100.00
50356;BME280;36264;51.296;-0.602;2022-12-07T14:49:40;101737.06;;;4.26;100.00
50356;BME280;36264;51.296;-0.602;2022-12-07T14:52:12;101733.69;;;4.30;100.00